createdAt,value
2023-04-23T03:59:54.579Z,4.00
2023-04-23T04:00:54.514Z,4.00
2023-04-23T04:01:54.524Z,8.00
2023-04-23T04:02:54.729Z,8.00
2023-04-23T04:03:54.688Z,12.00
2023-04-23T04:04:54.656Z,12.00
2023-04-23T04:05:54.651Z,16.00
2023-04-23T04:06:54.472Z,16.00
2023-04-23T04:07:54.479Z,16.00
2023-04-23T04:08:54.470Z,20.00
2023-04-23T04:09:54.482Z,20.00
2023-04-23T04:10:54.482Z,20.00
2023-04-23T04:11:54.462Z,28.00
2023-04-23T04:12:54.443Z,28.00
2023-04-23T04:13:54.446Z,32.00
2023-04-23T04:14:54.430Z,36.00
2023-04-23T04:15:54.462Z,36.00
2023-04-23T04:16:54.466Z,40.00
2023-04-23T04:17:54.446Z,48.00
2023-04-23T04:18:56.449Z,48.00
2023-04-23T04:19:54.436Z,52.00
2023-04-23T04:20:54.418Z,56.00
2023-04-23T04:21:54.403Z,60.00
2023-04-23T04:22:54.400Z,64.00
2023-04-23T04:23:54.398Z,72.00
2023-04-23T04:24:54.417Z,76.00
2023-04-23T04:25:54.413Z,80.00
2023-04-23T04:26:54.414Z,88.00
2023-04-23T04:27:54.409Z,92.00
2023-04-23T04:28:54.403Z,100.00
2023-04-23T04:29:54.428Z,104.00
2023-04-23T04:30:54.399Z,112.00
2023-04-23T04:31:54.394Z,116.00
2023-04-23T04:32:54.365Z,124.00
2023-04-23T04:33:54.350Z,132.00
2023-04-23T04:34:54.362Z,140.00
2023-04-23T04:35:54.362Z,144.00
2023-04-23T04:36:54.343Z,152.00
2023-04-23T04:37:54.352Z,160.00
2023-04-23T04:38:54.357Z,164.00
2023-04-23T04:39:54.385Z,172.00
2023-04-23T04:40:54.382Z,180.00
2023-04-23T04:41:54.321Z,184.00
2023-04-23T04:42:54.350Z,188.00
2023-04-23T04:43:54.318Z,196.00
2023-04-23T04:44:54.319Z,200.00
2023-04-23T04:45:54.316Z,204.00
2023-04-23T04:46:54.322Z,212.00
2023-04-23T04:47:54.369Z,216.00
2023-04-23T04:48:54.302Z,224.00
2023-04-23T04:49:54.286Z,228.00
2023-04-23T04:50:54.296Z,232.00
2023-04-23T04:51:54.309Z,236.00
2023-04-23T04:52:54.323Z,240.00
2023-04-23T04:53:54.334Z,240.00
2023-04-23T04:54:54.305Z,240.00
2023-04-23T04:55:54.288Z,236.00
2023-04-23T04:56:54.287Z,236.00
2023-04-23T04:57:54.274Z,236.00
2023-04-23T04:58:54.304Z,236.00
2023-04-23T04:59:54.305Z,236.00
2023-04-23T05:00:54.306Z,236.00
2023-04-23T05:01:54.301Z,240.00
2023-04-23T05:02:54.341Z,240.00
2023-04-23T05:03:54.452Z,244.00
2023-04-23T05:04:54.244Z,252.00
2023-04-23T05:05:54.247Z,256.00
2023-04-23T05:06:54.232Z,264.00
2023-04-23T05:07:54.301Z,276.00
2023-04-23T05:08:54.264Z,284.00
2023-04-23T05:09:54.230Z,292.00
2023-04-23T05:10:54.251Z,304.00
2023-04-23T05:11:54.230Z,308.00
2023-04-23T05:12:54.237Z,308.00
2023-04-23T05:13:54.249Z,316.00
2023-04-23T05:14:54.427Z,320.00
2023-04-23T05:15:54.212Z,316.00
2023-04-23T05:16:54.239Z,312.00
2023-04-23T05:17:54.226Z,316.00
2023-04-23T05:18:54.200Z,320.00
2023-04-23T05:19:54.219Z,340.00
2023-04-23T05:20:54.186Z,364.00
2023-04-23T05:21:54.185Z,400.00
2023-04-23T05:22:54.185Z,440.00
2023-04-23T05:23:54.199Z,476.00
2023-04-23T05:24:54.199Z,492.00
2023-04-23T05:25:54.463Z,500.00
2023-04-23T05:26:54.173Z,512.00
2023-04-23T05:27:54.193Z,544.00
2023-04-23T05:28:54.168Z,572.00
2023-04-23T05:29:54.199Z,588.00
2023-04-23T05:30:54.156Z,596.00
2023-04-23T05:31:54.165Z,620.00
2023-04-23T05:32:54.188Z,652.00
2023-04-23T05:33:54.158Z,668.00
2023-04-23T05:34:54.141Z,688.00
2023-04-23T05:35:54.146Z,700.00
2023-04-23T05:36:54.138Z,708.00
2023-04-23T05:37:54.155Z,720.00
2023-04-23T05:38:54.126Z,732.00
2023-04-23T05:39:54.165Z,748.00
2023-04-23T05:40:54.110Z,780.00
2023-04-23T05:41:54.121Z,804.00
2023-04-23T05:42:54.115Z,836.00
2023-04-23T05:43:54.127Z,896.00
2023-04-23T05:44:54.095Z,944.00
2023-04-23T05:45:54.102Z,956.00
2023-04-23T05:46:54.093Z,1052.00
2023-04-23T05:47:54.229Z,1024.00
2023-04-23T05:48:54.092Z,1016.00
2023-04-23T05:49:54.078Z,1072.00
2023-04-23T05:50:54.082Z,1172.00
2023-04-23T05:51:54.135Z,1204.00
2023-04-23T05:52:54.070Z,1236.00
2023-04-23T05:53:54.091Z,1352.00
2023-04-23T05:54:54.056Z,1672.00
2023-04-23T05:55:54.093Z,1672.00
2023-04-23T05:56:54.703Z,1708.00
2023-04-23T05:57:54.060Z,1768.00
2023-04-23T05:58:54.071Z,1928.00
2023-04-23T05:59:54.039Z,2120.00
2023-04-23T06:00:54.051Z,2236.00
2023-04-23T06:01:54.034Z,2376.00
2023-04-23T06:02:54.140Z,2304.00
2023-04-23T06:03:54.304Z,2296.00
2023-04-23T06:04:54.364Z,2472.00
2023-04-23T06:05:54.032Z,2332.00
2023-04-23T06:06:54.021Z,2540.00
2023-04-23T06:07:54.063Z,2580.00
2023-04-23T06:08:54.049Z,2388.00
2023-04-23T06:09:54.023Z,2532.00
2023-04-23T06:10:54.011Z,2044.00
2023-04-23T06:11:54.009Z,2500.00
2023-04-23T06:12:54.048Z,2016.00
2023-04-23T06:13:54.026Z,2420.00
2023-04-23T06:14:54.013Z,2560.00
2023-04-23T06:15:54.029Z,3052.00
2023-04-23T06:16:53.986Z,3376.00
2023-04-23T06:17:54.044Z,3160.00
2023-04-23T06:18:53.990Z,3364.00
2023-04-23T06:19:53.998Z,2960.00
2023-04-23T06:20:54.002Z,3280.00
2023-04-23T06:21:53.970Z,3480.00
2023-04-23T06:22:53.987Z,3480.00
2023-04-23T06:23:53.985Z,3696.00
2023-04-23T06:24:53.979Z,3800.00
2023-04-23T06:25:53.974Z,3816.00
2023-04-23T06:26:53.954Z,3824.00
2023-04-23T06:27:53.958Z,3668.00
2023-04-23T06:28:53.967Z,3644.00
2023-04-23T06:29:54.062Z,3576.00
2023-04-23T06:30:53.958Z,2072.00
2023-04-23T06:31:53.988Z,2040.00
2023-04-23T06:32:53.988Z,2060.00
2023-04-23T06:33:53.949Z,2076.00
2023-04-23T06:35:01.711Z,2084.00
2023-04-23T06:35:53.964Z,2376.00
2023-04-23T06:36:53.963Z,3516.00
2023-04-23T06:37:53.937Z,2020.00
2023-04-23T06:38:53.923Z,2452.00
2023-04-23T06:39:53.950Z,2140.00
2023-04-23T06:40:53.947Z,2280.00
2023-04-23T06:41:53.921Z,3028.00
2023-04-23T06:42:53.931Z,2076.00
2023-04-23T06:43:53.930Z,1968.00
2023-04-23T06:44:53.920Z,2032.00
2023-04-23T06:45:53.957Z,2968.00
2023-04-23T06:46:53.955Z,3696.00
2023-04-23T06:47:53.926Z,2280.00
2023-04-23T06:48:53.915Z,2316.00
2023-04-23T06:49:53.932Z,2048.00
2023-04-23T06:50:53.992Z,2032.00
2023-04-23T06:51:55.243Z,2096.00
2023-04-23T06:52:53.905Z,2196.00
2023-04-23T06:53:53.918Z,2996.00
2023-04-23T06:54:53.916Z,4092.00
2023-04-23T06:55:53.972Z,3604.00
2023-04-23T06:56:53.907Z,2580.00
2023-04-23T06:57:53.901Z,2056.00
2023-04-23T06:58:53.892Z,1924.00
2023-04-23T06:59:53.916Z,1928.00
2023-04-23T07:00:53.926Z,1836.00
2023-04-23T07:01:53.880Z,1900.00
2023-04-23T07:02:53.926Z,1804.00
2023-04-23T07:03:53.936Z,2336.00
2023-04-23T07:04:53.891Z,2080.00
2023-04-23T07:05:53.896Z,2688.00
2023-04-23T07:06:53.884Z,2832.00
2023-04-23T07:07:53.910Z,4656.00
2023-04-23T07:08:53.982Z,4620.00
2023-04-23T07:09:53.888Z,4660.00
2023-04-23T07:10:53.897Z,4176.00
2023-04-23T07:11:53.907Z,4476.00
2023-04-23T07:12:53.888Z,2888.00
2023-04-23T07:13:53.873Z,4308.00
2023-04-23T07:14:53.869Z,3932.00
2023-04-23T07:15:53.883Z,1896.00
2023-04-23T07:16:53.967Z,3932.00
2023-04-23T07:17:53.919Z,4228.00
2023-04-23T07:18:53.887Z,4236.00
2023-04-23T07:19:53.895Z,4272.00
2023-04-23T07:20:55.905Z,4276.00
2023-04-23T07:21:53.896Z,4140.00
2023-04-23T07:22:53.890Z,4400.00
2023-04-23T07:23:53.864Z,4360.00
2023-04-23T07:24:53.878Z,4264.00
2023-04-23T07:25:53.879Z,4200.00
2023-04-23T07:26:53.855Z,4268.00
2023-04-23T07:27:53.921Z,4352.00
2023-04-23T07:28:53.857Z,4432.00
2023-04-23T07:29:53.884Z,4412.00
2023-04-23T07:30:53.878Z,4384.00
2023-04-23T07:31:53.969Z,4408.00
2023-04-23T07:32:53.912Z,4328.00
2023-04-23T07:33:53.849Z,4396.00
2023-04-23T07:34:53.852Z,4496.00
2023-04-23T07:35:53.854Z,4488.00
2023-04-23T07:36:53.878Z,4448.00
2023-04-23T07:37:53.895Z,4484.00
2023-04-23T07:38:53.853Z,4516.00
2023-04-23T07:39:53.906Z,4440.00
2023-04-23T07:40:53.846Z,4456.00
2023-04-23T07:41:53.850Z,4440.00
2023-04-23T07:42:53.840Z,4440.00
2023-04-23T07:43:53.854Z,4444.00
2023-04-23T07:44:53.930Z,4464.00
2023-04-23T07:45:53.892Z,4472.00
2023-04-23T07:46:53.832Z,4452.00
2023-04-23T07:47:53.887Z,4468.00
2023-04-23T07:48:53.889Z,4472.00
2023-04-23T07:49:53.842Z,4460.00
2023-04-23T07:50:53.872Z,4444.00
2023-04-23T07:51:53.849Z,4472.00
2023-04-23T07:52:53.833Z,4452.00
2023-04-23T07:53:53.858Z,4428.00
2023-04-23T07:54:53.847Z,4420.00
2023-04-23T07:55:53.833Z,4444.00
2023-04-23T07:56:53.855Z,4408.00
2023-04-23T07:57:53.842Z,4400.00
2023-04-23T07:58:53.860Z,4352.00
2023-04-23T07:59:53.855Z,4360.00
2023-04-23T08:00:53.827Z,4376.00
2023-04-23T08:01:53.848Z,4356.00
2023-04-23T08:02:53.993Z,4320.00
2023-04-23T08:03:55.172Z,4280.00
2023-04-23T08:04:54.027Z,4300.00
2023-04-23T08:05:53.838Z,4296.00
2023-04-23T08:06:53.851Z,4324.00
2023-04-23T08:07:53.854Z,4288.00
2023-04-23T08:08:53.830Z,4284.00
2023-04-23T08:09:53.859Z,4244.00
2023-04-23T08:10:53.827Z,4200.00
2023-04-23T08:11:53.852Z,4188.00
2023-04-23T08:12:53.853Z,4188.00
2023-04-23T08:13:53.842Z,4160.00
2023-04-23T08:14:53.823Z,4140.00
2023-04-23T08:15:53.861Z,4180.00
2023-04-23T08:16:53.810Z,4184.00
2023-04-23T08:17:54.122Z,4112.00
2023-04-23T08:19:04.304Z,4160.00
2023-04-23T08:19:53.838Z,4092.00
2023-04-23T08:20:53.836Z,4056.00
2023-04-23T08:21:53.825Z,4064.00
2023-04-23T08:22:53.864Z,4040.00
2023-04-23T08:23:53.853Z,4068.00
2023-04-23T08:24:53.821Z,4076.00
2023-04-23T08:25:53.827Z,3960.00
2023-04-23T08:26:53.839Z,4072.00
2023-04-23T08:27:53.850Z,4040.00
2023-04-23T08:28:53.823Z,4016.00
2023-04-23T08:29:53.833Z,4028.00
2023-04-23T08:30:53.831Z,4016.00
2023-04-23T08:31:53.904Z,3980.00
2023-04-23T08:32:54.038Z,4036.00
2023-04-23T08:33:53.837Z,3992.00
2023-04-23T08:34:53.840Z,3964.00
2023-04-23T08:35:53.833Z,3984.00
2023-04-23T08:36:53.844Z,4020.00
2023-04-23T08:37:53.829Z,3960.00
2023-04-23T08:38:53.833Z,4056.00
2023-04-23T08:39:53.807Z,4212.00
2023-04-23T08:40:53.822Z,4336.00
2023-04-23T08:41:53.830Z,4544.00
2023-04-23T08:42:53.822Z,4852.00
2023-04-23T08:43:53.809Z,4404.00
2023-04-23T08:44:53.838Z,3676.00
2023-04-23T08:45:53.823Z,4176.00
2023-04-23T08:46:53.872Z,3712.00
2023-04-23T08:47:53.869Z,3388.00
2023-04-23T08:48:53.842Z,3400.00
2023-04-23T08:49:53.840Z,3492.00
2023-04-23T08:50:53.825Z,3488.00
2023-04-23T08:51:53.825Z,3392.00
2023-04-23T08:52:53.848Z,3396.00
2023-04-23T08:53:53.864Z,3284.00
2023-04-23T08:54:53.849Z,3144.00
2023-04-23T08:55:53.887Z,3148.00
2023-04-23T08:56:53.818Z,3252.00
2023-04-23T08:57:53.863Z,3384.00
2023-04-23T08:58:56.446Z,3580.00
2023-04-23T08:59:53.835Z,3728.00
2023-04-23T09:00:53.905Z,3780.00
2023-04-23T09:01:53.832Z,3772.00
2023-04-23T09:02:53.975Z,3648.00
2023-04-23T09:03:54.095Z,3504.00
2023-04-23T09:04:56.053Z,3404.00
2023-04-23T09:05:53.821Z,3336.00
2023-04-23T09:06:53.849Z,3196.00
2023-04-23T09:07:53.841Z,3036.00
2023-04-23T09:08:53.820Z,3020.00
2023-04-23T09:09:53.863Z,3052.00
2023-04-23T09:10:53.812Z,3064.00
2023-04-23T09:11:54.918Z,3068.00
2023-04-23T09:12:53.816Z,3092.00
2023-04-23T09:13:53.833Z,3164.00
2023-04-23T09:14:53.832Z,3240.00
2023-04-23T09:15:53.822Z,3304.00
2023-04-23T09:16:54.026Z,3324.00
2023-04-23T09:17:53.858Z,3276.00
2023-04-23T09:18:53.818Z,3172.00
2023-04-23T09:19:53.875Z,3060.00
2023-04-23T09:20:53.834Z,2892.00
2023-04-23T09:21:53.848Z,2768.00
2023-04-23T09:22:53.867Z,2696.00
2023-04-23T09:23:53.814Z,2688.00
2023-04-23T09:24:53.810Z,2928.00
2023-04-23T09:25:53.833Z,2712.00
2023-04-23T09:26:53.824Z,2756.00
2023-04-23T09:27:53.824Z,3008.00
2023-04-23T09:28:53.855Z,3128.00
2023-04-23T09:29:53.854Z,2896.00
2023-04-23T09:30:53.838Z,2948.00
2023-04-23T09:31:53.875Z,3508.00
2023-04-23T09:32:53.913Z,3904.00
2023-04-23T09:33:53.866Z,3748.00
2023-04-23T09:34:53.832Z,3752.00
2023-04-23T09:35:53.869Z,3656.00
2023-04-23T09:36:53.823Z,3668.00
2023-04-23T09:37:53.895Z,3576.00
2023-04-23T09:38:53.838Z,3540.00
2023-04-23T09:39:53.816Z,3536.00
2023-04-23T09:40:53.822Z,3524.00
2023-04-23T09:41:53.868Z,3528.00
2023-04-23T09:42:53.855Z,3468.00
2023-04-23T09:43:53.828Z,3532.00
2023-04-23T09:44:53.839Z,3452.00
2023-04-23T09:45:53.869Z,3360.00
2023-04-23T09:46:53.811Z,3300.00
2023-04-23T09:47:53.906Z,3252.00
2023-04-23T09:48:53.817Z,3276.00
2023-04-23T09:49:53.819Z,3272.00
2023-04-23T09:50:53.836Z,3344.00
2023-04-23T09:51:53.842Z,3216.00
2023-04-23T09:52:53.838Z,3232.00
2023-04-23T09:53:53.834Z,3168.00
2023-04-23T09:54:53.829Z,3272.00
2023-04-23T09:55:53.846Z,3304.00
2023-04-23T09:56:53.964Z,3200.00
2023-04-23T09:57:53.827Z,3252.00
2023-04-23T09:58:53.841Z,3216.00
2023-04-23T10:00:00.530Z,3192.00
2023-04-23T10:00:53.857Z,3196.00
2023-04-23T10:12:53.541Z,3460.00
2023-04-23T10:13:40.714Z,3520.00
2023-04-23T10:14:40.723Z,3604.00
2023-04-23T10:15:40.774Z,3680.00
2023-04-23T10:16:48.732Z,3736.00
2023-04-23T10:17:40.734Z,3912.00
2023-04-23T10:18:40.706Z,4200.00
2023-04-23T10:19:41.470Z,4320.00
2023-04-23T10:20:40.722Z,4296.00
2023-04-23T10:21:53.393Z,4252.00
2023-04-23T10:22:40.739Z,4132.00
2023-04-23T10:23:40.706Z,3980.00
2023-04-23T10:24:40.794Z,4048.00
2023-04-23T10:25:40.727Z,3952.00
2023-04-23T10:26:40.745Z,3864.00
2023-04-23T10:27:52.172Z,3872.00
2023-04-23T10:28:40.739Z,3904.00
2023-04-23T10:29:40.895Z,4076.00
2023-04-23T10:30:40.777Z,4112.00
2023-04-23T10:31:40.783Z,4060.00
2023-04-23T10:32:40.735Z,3964.00
2023-04-23T10:33:55.376Z,4008.00
2023-04-23T10:34:40.737Z,2472.00
2023-04-23T10:35:40.738Z,4260.00
2023-04-23T10:36:40.752Z,4356.00
2023-04-23T10:37:40.755Z,4288.00
2023-04-23T10:38:54.553Z,4404.00
2023-04-23T10:39:40.759Z,2792.00
2023-04-23T10:40:40.737Z,4388.00
2023-04-23T10:41:40.860Z,3728.00
2023-04-23T10:42:40.735Z,3136.00
2023-04-23T10:43:40.754Z,5104.00
2023-04-23T10:45:40.787Z,5204.00
2023-04-23T10:46:40.759Z,5372.00
2023-04-23T10:47:40.815Z,5340.00
2023-04-23T10:48:40.756Z,3892.00
2023-04-23T10:49:41.058Z,3976.00
2023-04-23T10:51:00.338Z,4056.00
2023-04-23T10:52:40.777Z,5732.00
2023-04-23T10:53:40.772Z,3828.00
2023-04-23T10:54:40.789Z,3736.00
2023-04-23T10:55:40.797Z,3528.00
2023-04-23T10:56:40.782Z,3420.00
2023-04-23T10:57:40.798Z,3608.00
2023-04-23T10:58:40.800Z,3920.00
2023-04-23T10:59:40.967Z,3820.00
2023-04-23T11:00:40.811Z,3936.00
2023-04-23T11:01:40.839Z,5372.00
2023-04-23T11:02:40.883Z,4544.00
2023-04-23T11:03:43.960Z,5652.00
2023-04-23T11:04:40.854Z,5628.00
2023-04-23T11:05:40.798Z,5432.00
2023-04-23T11:06:40.796Z,7232.00
2023-04-23T11:07:40.809Z,7032.00
2023-04-23T11:08:40.835Z,6904.00
2023-04-23T11:09:41.202Z,7028.00
2023-04-23T11:10:40.821Z,6868.00
2023-04-23T11:11:40.819Z,5692.00
2023-04-23T11:12:40.835Z,6444.00
2023-04-23T11:13:40.844Z,6660.00
2023-04-23T11:14:40.831Z,6936.00
2023-04-23T11:15:40.831Z,6888.00
2023-04-23T11:16:41.009Z,6088.00
2023-04-23T11:17:40.888Z,3892.00
2023-04-23T11:18:40.846Z,3620.00
2023-04-23T11:19:41.093Z,4744.00
2023-04-23T11:20:40.838Z,5120.00
2023-04-23T11:21:40.833Z,5512.00
2023-04-23T11:22:40.841Z,5524.00
2023-04-23T11:23:40.854Z,4892.00
2023-04-23T11:24:40.858Z,6880.00
2023-04-23T11:25:40.845Z,6284.00
2023-04-23T11:26:40.846Z,5332.00
2023-04-23T11:27:40.889Z,2808.00
2023-04-23T11:28:40.854Z,2380.00
2023-04-23T11:29:41.216Z,2188.00
2023-04-23T11:30:40.862Z,2116.00
2023-04-23T11:31:50.605Z,2284.00
2023-04-23T11:32:40.970Z,2584.00
2023-04-23T11:33:40.895Z,2948.00
2023-04-23T11:34:40.869Z,3360.00
2023-04-23T11:35:40.887Z,3744.00
2023-04-23T11:36:40.881Z,3968.00
2023-04-23T11:37:40.892Z,4096.00
2023-04-23T11:38:40.902Z,4212.00
2023-04-23T11:39:41.220Z,4448.00
2023-04-23T11:40:40.883Z,4772.00
2023-04-23T11:41:40.885Z,5112.00
2023-04-23T11:42:40.929Z,5524.00
2023-04-23T11:43:40.913Z,5640.00
2023-04-23T11:44:40.966Z,5668.00
2023-04-23T11:45:40.928Z,5768.00
2023-04-23T11:46:40.897Z,5936.00
2023-04-23T11:47:40.953Z,6148.00
2023-04-23T11:48:40.926Z,6464.00
2023-04-23T11:49:41.130Z,7516.00
2023-04-23T11:50:40.906Z,8396.00
2023-04-23T11:51:40.911Z,8224.00
2023-04-23T11:52:40.926Z,8468.00
2023-04-23T11:53:40.923Z,8152.00
2023-04-23T11:54:40.912Z,8076.00
2023-04-23T11:55:40.933Z,7860.00
2023-04-23T11:56:40.917Z,7584.00
2023-04-23T11:57:40.927Z,7236.00
2023-04-23T11:58:40.937Z,5644.00
2023-04-23T11:59:41.179Z,7224.00
2023-04-23T12:00:40.942Z,5196.00
2023-04-23T12:01:40.953Z,5356.00
2023-04-23T12:02:41.078Z,7420.00
2023-04-23T12:03:41.032Z,8992.00
2023-04-23T12:04:41.478Z,7104.00
2023-04-23T12:05:41.046Z,5316.00
2023-04-23T12:06:40.976Z,5368.00
2023-04-23T12:07:40.984Z,6036.00
2023-04-23T12:08:40.950Z,6648.00
2023-04-23T12:09:41.225Z,6480.00
2023-04-23T12:10:40.953Z,6568.00
2023-04-23T12:11:40.971Z,5744.00
2023-04-23T12:12:40.966Z,5644.00
2023-04-23T12:13:40.969Z,6072.00
2023-04-23T12:14:40.984Z,6432.00
2023-04-23T12:15:41.052Z,6216.00
2023-04-23T12:16:40.960Z,5612.00
2023-04-23T12:17:41.003Z,5408.00
2023-04-23T12:18:40.976Z,5084.00
2023-04-23T12:19:41.176Z,5536.00
2023-04-23T12:20:40.995Z,6176.00
2023-04-23T12:21:40.973Z,6704.00
2023-04-23T12:22:40.973Z,6716.00
2023-04-23T12:23:40.986Z,7944.00
2023-04-23T12:24:41.046Z,7948.00
2023-04-23T12:25:41.000Z,9292.00
2023-04-23T12:26:41.019Z,9424.00
2023-04-23T12:27:41.027Z,10224.00
2023-04-23T12:28:41.015Z,9320.00
2023-04-23T12:29:41.231Z,8232.00
2023-04-23T12:30:41.037Z,9520.00
2023-04-23T12:31:41.062Z,10128.00
2023-04-23T12:32:41.114Z,9492.00
2023-04-23T12:33:41.054Z,8988.00
2023-04-23T12:34:41.299Z,9492.00
2023-04-23T12:35:41.014Z,9956.00
2023-04-23T12:36:41.044Z,9672.00
2023-04-23T12:37:41.023Z,10024.00
2023-04-23T12:38:41.034Z,9056.00
2023-04-23T12:39:41.501Z,8540.00
2023-04-23T12:40:41.051Z,8664.00
2023-04-23T12:41:41.036Z,7788.00
2023-04-23T12:42:41.050Z,7072.00
2023-04-23T12:43:41.042Z,6032.00
2023-04-23T12:44:41.048Z,6160.00
2023-04-23T12:45:41.095Z,6104.00
2023-04-23T12:46:41.070Z,5952.00
2023-04-23T12:47:41.091Z,5692.00
2023-04-23T12:48:41.057Z,5876.00
2023-04-23T12:49:41.321Z,5428.00
2023-04-23T12:50:41.143Z,5456.00
2023-04-23T12:51:41.067Z,5972.00
2023-04-23T12:52:41.092Z,6744.00
2023-04-23T12:53:41.111Z,7092.00
2023-04-23T12:54:41.112Z,6600.00
2023-04-23T12:55:41.145Z,6284.00
2023-04-23T12:56:41.075Z,6024.00
2023-04-23T12:57:41.101Z,6104.00
2023-04-23T12:58:41.109Z,6064.00
2023-04-23T12:59:41.623Z,6032.00
2023-04-23T13:00:41.141Z,6016.00
2023-04-23T13:01:41.130Z,6044.00
2023-04-23T13:02:41.314Z,5956.00
2023-04-23T13:03:41.243Z,6064.00
2023-04-23T13:04:41.106Z,6648.00
2023-04-23T13:05:41.110Z,7260.00
2023-04-23T13:06:41.118Z,7700.00
2023-04-23T13:07:41.132Z,7836.00
2023-04-23T13:08:41.129Z,8220.00
2023-04-23T13:09:41.341Z,8648.00
2023-04-23T13:10:41.141Z,9268.00
2023-04-23T13:11:41.113Z,9648.00
2023-04-23T13:12:41.150Z,9684.00
2023-04-23T13:13:41.120Z,9704.00
2023-04-23T13:14:41.149Z,10472.00
2023-04-23T13:15:41.126Z,12248.00
2023-04-23T13:16:41.164Z,12760.00
2023-04-23T13:17:41.190Z,13424.00
2023-04-23T13:18:41.171Z,12548.00
2023-04-23T13:19:41.526Z,8680.00
2023-04-23T13:20:41.177Z,8672.00
2023-04-23T13:21:41.192Z,12564.00
2023-04-23T13:22:41.171Z,13252.00
2023-04-23T13:23:41.178Z,12804.00
2023-04-23T13:24:41.186Z,11312.00
2023-04-23T13:25:41.194Z,10100.00
2023-04-23T13:26:41.164Z,8904.00
2023-04-23T13:27:41.196Z,7632.00
2023-04-23T13:28:41.169Z,7168.00
2023-04-23T13:29:41.438Z,6420.00
2023-04-23T13:30:41.181Z,5652.00
2023-04-23T13:31:41.271Z,4120.00
2023-04-23T13:32:41.182Z,3684.00
2023-04-23T13:33:41.167Z,3592.00
2023-04-23T13:34:41.198Z,3316.00
2023-04-23T13:35:41.207Z,3236.00
2023-04-23T13:36:41.254Z,3252.00
2023-04-23T13:37:41.213Z,3112.00
2023-04-23T13:38:41.202Z,2924.00
2023-04-23T13:39:41.959Z,2792.00
2023-04-23T13:40:41.212Z,2720.00
2023-04-23T13:41:41.221Z,2732.00
2023-04-23T13:42:41.216Z,2784.00
2023-04-23T13:43:41.211Z,2884.00
2023-04-23T13:44:41.233Z,2972.00
2023-04-23T13:45:41.254Z,3156.00
2023-04-23T13:46:41.333Z,3312.00
2023-04-23T13:47:41.281Z,3312.00
2023-04-23T13:48:41.210Z,3224.00
2023-04-23T13:49:41.633Z,3228.00
2023-04-23T13:50:41.215Z,3188.00
2023-04-23T13:51:41.219Z,3132.00
2023-04-23T13:52:41.224Z,3100.00
2023-04-23T13:53:41.217Z,3068.00
2023-04-23T13:54:41.273Z,3048.00
2023-04-23T13:55:41.235Z,3052.00
2023-04-23T13:56:41.233Z,3080.00
2023-04-23T13:57:41.261Z,3136.00
2023-04-23T13:58:41.271Z,3200.00
2023-04-23T13:59:41.537Z,3296.00
2023-04-23T14:00:41.236Z,3436.00
2023-04-23T14:01:41.383Z,3640.00
2023-04-23T14:02:41.334Z,4040.00
2023-04-23T14:03:41.229Z,4348.00
2023-04-23T14:04:41.344Z,4744.00
2023-04-23T14:05:41.246Z,5664.00
2023-04-23T14:06:41.256Z,6660.00
2023-04-23T14:07:41.256Z,7060.00
2023-04-23T14:08:41.263Z,8304.00
2023-04-23T14:12:13.811Z,14676.00
2023-04-23T14:13:13.803Z,16784.00
2023-04-23T14:14:13.825Z,16060.00
2023-04-23T14:15:13.790Z,13216.00
2023-04-23T14:16:13.806Z,11976.00
2023-04-23T14:17:13.788Z,10088.00
2023-04-23T14:18:13.787Z,10792.00
2023-04-23T14:19:13.830Z,11160.00
2023-04-23T14:20:13.802Z,9928.00
2023-04-23T14:21:16.320Z,10716.00
2023-04-23T14:22:13.833Z,12932.00
2023-04-23T14:23:13.826Z,13376.00
2023-04-23T14:24:13.836Z,15276.00
2023-04-23T14:25:13.812Z,16888.00
2023-04-23T14:26:13.821Z,19456.00
2023-04-23T14:27:13.840Z,20064.00
2023-04-23T14:28:13.815Z,18048.00
2023-04-23T14:29:13.827Z,19296.00
2023-04-23T14:30:13.830Z,20000.00
2023-04-23T14:31:13.861Z,19552.00
2023-04-23T14:32:13.830Z,24800.00
2023-04-23T14:33:13.817Z,27712.00
2023-04-23T14:34:13.835Z,27744.00
2023-04-23T14:35:13.844Z,28256.00
2023-04-23T14:36:13.830Z,19712.00
2023-04-23T14:37:13.834Z,10160.00
2023-04-23T14:38:13.827Z,11108.00
2023-04-23T14:39:13.827Z,7748.00
2023-04-23T14:40:13.875Z,7800.00
2023-04-23T14:41:13.836Z,20480.00
2023-04-23T14:42:13.939Z,15292.00
2023-04-23T14:43:15.861Z,4508.00
2023-04-23T14:44:13.873Z,3860.00
2023-04-23T14:45:13.856Z,4180.00
2023-04-23T14:46:13.862Z,3808.00
2023-04-23T14:47:13.859Z,2588.00
2023-04-23T14:48:13.841Z,2352.00
2023-04-23T14:49:13.855Z,1740.00
2023-04-23T14:50:13.890Z,1176.00
2023-04-23T14:51:13.856Z,832.00
2023-04-23T14:52:13.878Z,600.00
2023-04-23T14:53:13.855Z,452.00
2023-04-23T14:54:13.867Z,352.00
2023-04-23T14:55:13.867Z,280.00
2023-04-23T14:56:34.873Z,240.00
2023-04-23T14:57:13.855Z,224.00
2023-04-23T14:58:13.858Z,252.00
2023-04-23T14:59:13.882Z,312.00
2023-04-23T15:00:13.933Z,376.00
2023-04-23T15:01:13.936Z,420.00
2023-04-23T15:02:13.997Z,504.00
2023-04-23T15:03:13.944Z,620.00
2023-04-23T15:04:14.022Z,768.00
2023-04-23T15:05:13.970Z,1012.00
2023-04-23T15:06:13.895Z,1304.00
2023-04-23T15:07:13.871Z,1660.00
2023-04-23T15:08:13.872Z,2196.00
2023-04-23T15:09:13.860Z,2872.00
2023-04-23T15:10:13.875Z,3516.00
2023-04-23T15:11:13.882Z,2616.00
2023-04-23T15:12:13.870Z,2324.00
2023-04-23T15:13:13.869Z,2176.00
2023-04-23T15:14:13.866Z,2076.00
2023-04-23T15:15:13.867Z,1972.00
2023-04-23T15:16:13.941Z,1912.00
2023-04-23T15:17:13.946Z,1944.00
2023-04-23T15:18:13.883Z,2044.00
2023-04-23T15:19:13.905Z,2228.00
2023-04-23T15:20:13.876Z,2536.00
2023-04-23T15:21:13.885Z,2876.00
2023-04-23T15:22:13.874Z,3112.00
2023-04-23T15:23:13.913Z,3300.00
2023-04-23T15:24:13.883Z,3684.00
2023-04-23T15:25:13.902Z,3920.00
2023-04-23T15:26:13.978Z,4204.00
2023-04-23T15:27:13.878Z,4396.00
2023-04-23T15:28:13.885Z,4736.00
2023-04-23T15:29:14.112Z,5168.00
2023-04-23T15:30:13.874Z,5644.00
2023-04-23T15:31:13.992Z,5828.00
2023-04-23T15:32:13.888Z,5860.00
2023-04-23T15:33:13.926Z,6048.00
2023-04-23T15:34:13.877Z,6188.00
2023-04-23T15:35:13.888Z,7300.00
2023-04-23T15:36:13.918Z,5936.00
2023-04-23T15:37:13.876Z,5660.00
2023-04-23T15:38:13.869Z,5488.00
2023-04-23T15:39:13.881Z,5992.00
2023-04-23T15:40:13.873Z,7468.00
2023-04-23T15:41:13.895Z,5620.00
2023-04-23T15:42:13.877Z,5280.00
2023-04-23T15:43:13.897Z,5376.00
2023-04-23T15:44:13.870Z,5300.00
2023-04-23T15:45:13.897Z,5212.00
2023-04-23T15:46:13.982Z,5108.00
2023-04-23T15:47:13.909Z,5076.00
2023-04-23T15:48:13.881Z,5064.00
2023-04-23T15:49:14.502Z,5140.00
2023-04-23T15:50:13.885Z,5052.00
2023-04-23T15:51:13.892Z,4940.00
2023-04-23T15:52:13.899Z,4744.00
2023-04-23T15:53:13.878Z,4496.00
2023-04-23T15:54:13.885Z,4252.00
2023-04-23T15:55:13.866Z,4028.00
2023-04-23T15:56:13.867Z,3784.00
2023-04-23T15:57:13.884Z,3528.00
2023-04-23T15:58:13.880Z,3280.00
2023-04-23T15:59:13.864Z,3008.00
2023-04-23T16:00:13.867Z,2732.00
2023-04-23T16:11:44.834Z,1728.00
2023-04-23T16:12:44.790Z,1668.00
2023-04-23T16:13:44.763Z,1604.00
2023-04-23T16:14:44.768Z,1548.00
2023-04-23T16:15:44.779Z,1492.00
2023-04-23T16:16:44.855Z,1436.00
2023-04-23T16:17:44.785Z,1376.00
2023-04-23T16:18:44.750Z,1300.00
2023-04-23T16:19:45.018Z,1212.00
2023-04-23T16:20:44.780Z,1124.00
2023-04-23T16:21:44.763Z,1040.00
2023-04-23T16:22:44.756Z,960.00
2023-04-23T16:23:44.756Z,908.00
2023-04-23T16:24:44.764Z,872.00
2023-04-23T16:25:44.743Z,836.00
2023-04-23T16:26:44.775Z,792.00
2023-04-23T16:27:44.780Z,772.00
2023-04-23T16:28:45.789Z,784.00
2023-04-23T16:29:44.771Z,796.00
2023-04-23T16:30:44.777Z,800.00
2023-04-23T16:31:44.773Z,796.00
2023-04-23T16:32:44.799Z,788.00
2023-04-23T16:33:44.742Z,800.00
2023-04-23T16:34:44.834Z,812.00